sensor_id;sensor_type;location;lat;lon;timestamp;temperature;humidity
26051;DHT22;13825;53.496;10.020;2022-12-11T00:02:52;-2.10;99.90
26051;DHT22;13825;53.496;10.020;2022-12-11T00:05:43;-2.10;99.90
26051;DHT22;13825;53.496;10.020;2022-12-11T00:08:16;-2.10;99.90
26051;DHT22;13825;53.496;10.020;2022-12-11T00:10:59;-2.10;99.90
26051;DHT22;13825;53.496;10.020;2022-12-11T00:13:43;-2.10;99.90
26051;DHT22;13825;53.496;10.020;2022-12-11T00:16:40;-2.10;99.90
26051;DHT22;13825;53.496;10.020;2022-12-11T00:19:14;-2.10;99.90
26051;DHT22;13825;53.496;10.020;2022-12-11T00:22:09;-2.20;99.90
26051;DHT22;13825;53.496;10.020;2022-12-11T00:25:33;-2.20;99.90
26051;DHT22;13825;53.496;10.020;2022-12-11T00:28:18;-2.20;99.90
26051;DHT22;13825;53.496;10.020;2022-12-11T00:30:53;-2.10;99.90
26051;DHT22;13825;53.496;10.020;2022-12-11T00:34:03;-2.10;99.90
26051;DHT22;13825;53.496;10.020;2022-12-11T00:36:38;-2.20;99.90
26051;DHT22;13825;53.496;10.020;2022-12-11T00:39:44;-2.10;99.90
26051;DHT22;13825;53.496;10.020;2022-12-11T00:42:22;-2.20;99.90
26051;DHT22;13825;53.496;10.020;2022-12-11T00:45:17;-2.20;99.90
26051;DHT22;13825;53.496;10.020;2022-12-11T00:48:06;-2.30;99.90
26051;DHT22;13825;53.496;10.020;2022-12-11T00:50:54;-2.20;99.90
26051;DHT22;13825;53.496;10.020;2022-12-11T00:53:43;-2.20;99.90
26051;DHT22;13825;53.496;10.020;2022-12-11T00:56:30;-2.20;99.90
26051;DHT22;13825;53.496;10.020;2022-12-11T00:59:02;-2.20;99.90
26051;DHT22;13825;53.496;10.020;2022-12-11T01:01:47;-2.30;99.90
26051;DHT22;13825;53.496;10.020;2022-12-11T01:04:25;-2.30;99.90
26051;DHT22;13825;53.496;10.020;2022-12-11T01:07:22;-2.30;99.90
26051;DHT22;13825;53.496;10.020;2022-12-11T01:10:00;-2.20;99.90
26051;DHT22;13825;53.496;10.020;2022-12-11T01:12:50;-2.20;99.90
26051;DHT22;13825;53.496;10.020;2022-12-11T01:15:50;-2.10;99.90
26051;DHT22;13825;53.496;10.020;2022-12-11T01:19:00;-2.30;99.90
26051;DHT22;13825;53.496;10.020;2022-12-11T01:21:41;-2.20;99.90
26051;DHT22;13825;53.496;10.020;2022-12-11T01:24:39;-2.30;99.90
26051;DHT22;13825;53.496;10.020;2022-12-11T01:27:28;-2.30;99.90
26051;DHT22;13825;53.496;10.020;2022-12-11T01:30:22;-2.30;99.90
26051;DHT22;13825;53.496;10.020;2022-12-11T01:33:07;-2.30;99.90
26051;DHT22;13825;53.496;10.020;2022-12-11T01:35:55;-2.30;99.90
26051;DHT22;13825;53.496;10.020;2022-12-11T01:38:48;-2.30;99.90
26051;DHT22;13825;53.496;10.020;2022-12-11T01:41:41;-2.30;99.90
26051;DHT22;13825;53.496;10.020;2022-12-11T01:47:32;-2.30;99.90
26051;DHT22;13825;53.496;10.020;2022-12-11T01:50:12;-2.40;99.90
26051;DHT22;13825;53.496;10.020;2022-12-11T01:53:03;-2.30;99.90
26051;DHT22;13825;53.496;10.020;2022-12-11T01:55:59;-2.20;99.90
26051;DHT22;13825;53.496;10.020;2022-12-11T01:58:42;-2.30;99.90
26051;DHT22;13825;53.496;10.020;2022-12-11T02:01:42;-2.30;99.90
26051;DHT22;13825;53.496;10.020;2022-12-11T02:04:55;-2.30;99.90
26051;DHT22;13825;53.496;10.020;2022-12-11T02:07:31;-2.30;99.90
26051;DHT22;13825;53.496;10.020;2022-12-11T02:10:05;-2.30;99.90
26051;DHT22;13825;53.496;10.020;2022-12-11T02:16:24;-2.30;99.90
26051;DHT22;13825;53.496;10.020;2022-12-11T02:19:38;-2.30;99.90
26051;DHT22;13825;53.496;10.020;2022-12-11T02:22:17;-2.30;99.90
26051;DHT22;13825;53.496;10.020;2022-12-11T02:25:03;-2.30;99.90
26051;DHT22;13825;53.496;10.020;2022-12-11T02:30:40;-2.30;99.90
26051;DHT22;13825;53.496;10.020;2022-12-11T02:33:42;-2.30;99.90
26051;DHT22;13825;53.496;10.020;2022-12-11T02:36:29;-2.30;99.90
26051;DHT22;13825;53.496;10.020;2022-12-11T02:42:14;-2.30;99.90
26051;DHT22;13825;53.496;10.020;2022-12-11T02:45:05;-2.30;99.90
26051;DHT22;13825;53.496;10.020;2022-12-11T02:52:30;-2.30;99.90
26051;DHT22;13825;53.496;10.020;2022-12-11T02:54:30;-2.20;99.90
26051;DHT22;13825;53.496;10.020;2022-12-11T02:58:03;-2.30;99.90
26051;DHT22;13825;53.496;10.020;2022-12-11T03:01:14;-2.30;99.90
26051;DHT22;13825;53.496;10.020;2022-12-11T03:03:59;-2.20;99.90
26051;DHT22;13825;53.496;10.020;2022-12-11T03:06:31;-2.30;99.90
26051;DHT22;13825;53.496;10.020;2022-12-11T03:09:00;-2.30;99.90
26051;DHT22;13825;53.496;10.020;2022-12-11T03:11:31;-2.30;99.90
26051;DHT22;13825;53.496;10.020;2022-12-11T03:14:02;-2.30;99.90
26051;DHT22;13825;53.496;10.020;2022-12-11T03:16:46;-2.30;99.90
26051;DHT22;13825;53.496;10.020;2022-12-11T03:19:44;-2.30;99.90
26051;DHT22;13825;53.496;10.020;2022-12-11T03:22:18;-2.30;99.90
26051;DHT22;13825;53.496;10.020;2022-12-11T03:24:50;-2.40;99.90
26051;DHT22;13825;53.496;10.020;2022-12-11T03:30:22;-2.30;99.90
26051;DHT22;13825;53.496;10.020;2022-12-11T03:32:53;-2.30;99.90
26051;DHT22;13825;53.496;10.020;2022-12-11T03:35:25;-2.40;99.90
26051;DHT22;13825;53.496;10.020;2022-12-11T03:37:55;-2.40;99.90
26051;DHT22;13825;53.496;10.020;2022-12-11T03:41:01;-2.40;99.90
26051;DHT22;13825;53.496;10.020;2022-12-11T03:44:03;-2.40;99.90
26051;DHT22;13825;53.496;10.020;2022-12-11T03:46:33;-2.30;99.90
26051;DHT22;13825;53.496;10.020;2022-12-11T03:49:20;-2.40;99.90
26051;DHT22;13825;53.496;10.020;2022-12-11T03:52:09;-2.40;99.90
26051;DHT22;13825;53.496;10.020;2022-12-11T03:54:38;-2.40;99.90
26051;DHT22;13825;53.496;10.020;2022-12-11T03:57:26;-2.30;99.90
26051;DHT22;13825;53.496;10.020;2022-12-11T03:59:59;-2.30;99.90
26051;DHT22;13825;53.496;10.020;2022-12-11T04:03:11;-2.30;99.90
26051;DHT22;13825;53.496;10.020;2022-12-11T04:06:41;-2.20;99.90
26051;DHT22;13825;53.496;10.020;2022-12-11T04:16:35;-2.30;99.90
26051;DHT22;13825;53.496;10.020;2022-12-11T04:19:21;-2.30;99.90
26051;DHT22;13825;53.496;10.020;2022-12-11T04:22:16;-2.30;99.90
26051;DHT22;13825;53.496;10.020;2022-12-11T04:26:00;-2.30;99.90
26051;DHT22;13825;53.496;10.020;2022-12-11T04:31:45;-2.20;99.90
26051;DHT22;13825;53.496;10.020;2022-12-11T04:34:32;-2.30;99.90
26051;DHT22;13825;53.496;10.020;2022-12-11T04:41:35;-2.20;99.90
26051;DHT22;13825;53.496;10.020;2022-12-11T04:44:48;-2.10;99.90
26051;DHT22;13825;53.496;10.020;2022-12-11T04:50:35;-2.20;99.90
26051;DHT22;13825;53.496;10.020;2022-12-11T04:53:40;-2.10;99.90
26051;DHT22;13825;53.496;10.020;2022-12-11T04:57:51;-2.10;99.90
26051;DHT22;13825;53.496;10.020;2022-12-11T05:00:08;-2.10;99.90
26051;DHT22;13825;53.496;10.020;2022-12-11T05:02:54;-2.10;99.90
26051;DHT22;13825;53.496;10.020;2022-12-11T05:05:38;-2.20;99.90
26051;DHT22;13825;53.496;10.020;2022-12-11T05:08:13;-2.20;99.90
26051;DHT22;13825;53.496;10.020;2022-12-11T05:11:00;-2.10;99.90
26051;DHT22;13825;53.496;10.020;2022-12-11T05:13:34;-2.20;99.90
26051;DHT22;13825;53.496;10.020;2022-12-11T05:16:06;-2.10;99.90
26051;DHT22;13825;53.496;10.020;2022-12-11T05:22:22;-2.10;99.90
26051;DHT22;13825;53.496;10.020;2022-12-11T05:32:02;-2.00;99.90
26051;DHT22;13825;53.496;10.020;2022-12-11T05:41:24;-2.00;99.90
26051;DHT22;13825;53.496;10.020;2022-12-11T05:44:19;-2.10;99.90
26051;DHT22;13825;53.496;10.020;2022-12-11T05:47:53;-2.00;99.90
26051;DHT22;13825;53.496;10.020;2022-12-11T05:50:54;-2.00;82.10
26051;DHT22;13825;53.496;10.020;2022-12-11T05:53:42;-2.00;99.90
26051;DHT22;13825;53.496;10.020;2022-12-11T05:56:48;-2.00;99.90
26051;DHT22;13825;53.496;10.020;2022-12-11T05:59:30;-2.00;99.90
26051;DHT22;13825;53.496;10.020;2022-12-11T06:02:21;-2.10;99.90
26051;DHT22;13825;53.496;10.020;2022-12-11T06:05:20;-2.10;99.90
26051;DHT22;13825;53.496;10.020;2022-12-11T06:08:26;-2.00;75.30
26051;DHT22;13825;53.496;10.020;2022-12-11T06:11:25;-2.10;99.90
26051;DHT22;13825;53.496;10.020;2022-12-11T06:14:47;-2.20;99.90
26051;DHT22;13825;53.496;10.020;2022-12-11T06:17:42;-2.30;99.90
26051;DHT22;13825;53.496;10.020;2022-12-11T06:20:19;-2.50;99.90
26051;DHT22;13825;53.496;10.020;2022-12-11T06:23:10;-2.60;99.90
26051;DHT22;13825;53.496;10.020;2022-12-11T06:26:49;-2.60;99.90
26051;DHT22;13825;53.496;10.020;2022-12-11T06:29:05;-2.60;99.90
26051;DHT22;13825;53.496;10.020;2022-12-11T06:32:04;-2.60;99.90
26051;DHT22;13825;53.496;10.020;2022-12-11T06:34:50;-2.70;99.90
26051;DHT22;13825;53.496;10.020;2022-12-11T06:37:29;-2.80;99.90
26051;DHT22;13825;53.496;10.020;2022-12-11T06:40:58;-2.90;99.90
26051;DHT22;13825;53.496;10.020;2022-12-11T06:44:11;-2.90;99.90
26051;DHT22;13825;53.496;10.020;2022-12-11T06:47:21;-3.00;99.90
26051;DHT22;13825;53.496;10.020;2022-12-11T06:50:37;-3.10;99.90
26051;DHT22;13825;53.496;10.020;2022-12-11T06:53:31;-3.20;99.90
26051;DHT22;13825;53.496;10.020;2022-12-11T07:00:21;-3.30;99.90
26051;DHT22;13825;53.496;10.020;2022-12-11T07:02:47;-3.40;99.90
26051;DHT22;13825;53.496;10.020;2022-12-11T07:05:49;-3.50;99.90
26051;DHT22;13825;53.496;10.020;2022-12-11T07:08:56;-3.50;99.90
26051;DHT22;13825;53.496;10.020;2022-12-11T07:12:09;-3.60;99.90
26051;DHT22;13825;53.496;10.020;2022-12-11T07:16:04;-3.70;99.90
26051;DHT22;13825;53.496;10.020;2022-12-11T07:22:29;-3.90;99.90
26051;DHT22;13825;53.496;10.020;2022-12-11T07:28:10;-4.10;99.90
26051;DHT22;13825;53.496;10.020;2022-12-11T07:31:09;-4.10;99.90
26051;DHT22;13825;53.496;10.020;2022-12-11T07:34:12;-4.20;99.90
26051;DHT22;13825;53.496;10.020;2022-12-11T07:37:13;-4.20;99.90
26051;DHT22;13825;53.496;10.020;2022-12-11T07:40:15;-4.20;99.90
26051;DHT22;13825;53.496;10.020;2022-12-11T07:43:00;-4.20;99.90
26051;DHT22;13825;53.496;10.020;2022-12-11T07:49:00;-4.30;99.90
26051;DHT22;13825;53.496;10.020;2022-12-11T07:51:50;-4.30;99.90
26051;DHT22;13825;53.496;10.020;2022-12-11T07:54:51;-4.40;99.90
26051;DHT22;13825;53.496;10.020;2022-12-11T08:00:59;-4.40;99.90
26051;DHT22;13825;53.496;10.020;2022-12-11T08:07:17;-4.40;99.90
26051;DHT22;13825;53.496;10.020;2022-12-11T08:10:12;-4.30;99.90
26051;DHT22;13825;53.496;10.020;2022-12-11T08:13:04;-4.30;99.90
26051;DHT22;13825;53.496;10.020;2022-12-11T08:17:09;-4.30;99.90
26051;DHT22;13825;53.496;10.020;2022-12-11T08:19:36;-4.30;99.90
26051;DHT22;13825;53.496;10.020;2022-12-11T08:22:28;-4.20;99.90
26051;DHT22;13825;53.496;10.020;2022-12-11T08:25:10;-4.10;99.90
26051;DHT22;13825;53.496;10.020;2022-12-11T08:27:48;-4.10;99.90
26051;DHT22;13825;53.496;10.020;2022-12-11T08:30:26;-4.10;99.90
26051;DHT22;13825;53.496;10.020;2022-12-11T08:37:32;-4.10;99.90
26051;DHT22;13825;53.496;10.020;2022-12-11T08:47:04;-3.80;99.90
26051;DHT22;13825;53.496;10.020;2022-12-11T08:49:34;-3.60;99.90
26051;DHT22;13825;53.496;10.020;2022-12-11T08:52:11;-3.60;99.90
26051;DHT22;13825;53.496;10.020;2022-12-11T08:54:58;-3.50;99.90
26051;DHT22;13825;53.496;10.020;2022-12-11T08:57:48;-3.50;99.90
26051;DHT22;13825;53.496;10.020;2022-12-11T09:00:34;-3.40;99.90
26051;DHT22;13825;53.496;10.020;2022-12-11T09:52:53;-2.50;99.90
26051;DHT22;13825;53.496;10.020;2022-12-11T09:56:24;-2.50;99.90
26051;DHT22;13825;53.496;10.020;2022-12-11T09:59:42;-2.50;99.90
26051;DHT22;13825;53.496;10.020;2022-12-11T10:02:58;-2.40;99.90
26051;DHT22;13825;53.496;10.020;2022-12-11T10:09:24;-2.30;99.90
26051;DHT22;13825;53.496;10.020;2022-12-11T10:18:14;-2.10;99.90
26051;DHT22;13825;53.496;10.020;2022-12-11T10:19:40;-2.00;99.90
26051;DHT22;13825;53.496;10.020;2022-12-11T10:43:03;-1.60;55.90
26051;DHT22;13825;53.496;10.020;2022-12-11T11:39:41;-0.70;99.90
26051;DHT22;13825;53.496;10.020;2022-12-11T11:45:52;-0.50;99.90
26051;DHT22;13825;53.496;10.020;2022-12-11T12:54:15;0.00;99.90
26051;DHT22;13825;53.496;10.020;2022-12-11T12:57:04;0.10;99.90
26051;DHT22;13825;53.496;10.020;2022-12-11T12:59:37;0.10;99.90
26051;DHT22;13825;53.496;10.020;2022-12-11T13:02:18;0.10;99.90
26051;DHT22;13825;53.496;10.020;2022-12-11T13:05:01;0.10;99.90
26051;DHT22;13825;53.496;10.020;2022-12-11T13:07:32;0.20;99.90
26051;DHT22;13825;53.496;10.020;2022-12-11T13:10:06;0.20;99.90
26051;DHT22;13825;53.496;10.020;2022-12-11T13:12:42;0.20;99.90
26051;DHT22;13825;53.496;10.020;2022-12-11T13:15:35;0.30;99.90
26051;DHT22;13825;53.496;10.020;2022-12-11T13:18:45;0.50;99.90
26051;DHT22;13825;53.496;10.020;2022-12-11T13:21:32;0.40;99.90
26051;DHT22;13825;53.496;10.020;2022-12-11T13:24:29;0.60;99.90
26051;DHT22;13825;53.496;10.020;2022-12-11T13:27:39;0.60;99.90
26051;DHT22;13825;53.496;10.020;2022-12-11T13:30:25;0.50;99.90
26051;DHT22;13825;53.496;10.020;2022-12-11T13:33:05;0.60;99.90
26051;DHT22;13825;53.496;10.020;2022-12-11T13:36:22;0.70;99.90
26051;DHT22;13825;53.496;10.020;2022-12-11T13:39:04;0.70;99.90
26051;DHT22;13825;53.496;10.020;2022-12-11T13:41:52;0.50;99.90
26051;DHT22;13825;53.496;10.020;2022-12-11T13:44:40;0.40;99.90
26051;DHT22;13825;53.496;10.020;2022-12-11T13:47:22;0.30;99.90
26051;DHT22;13825;53.496;10.020;2022-12-11T13:50:13;0.10;99.90
26051;DHT22;13825;53.496;10.020;2022-12-11T13:53:03;-0.10;99.90
26051;DHT22;13825;53.496;10.020;2022-12-11T13:55:38;-0.10;99.90
26051;DHT22;13825;53.496;10.020;2022-12-11T13:58:20;-0.20;99.90
26051;DHT22;13825;53.496;10.020;2022-12-11T14:01:04;-0.30;99.90
26051;DHT22;13825;53.496;10.020;2022-12-11T14:03:47;-0.40;99.90
26051;DHT22;13825;53.496;10.020;2022-12-11T14:06:27;-0.40;99.90
26051;DHT22;13825;53.496;10.020;2022-12-11T14:09:07;-0.50;99.90
26051;DHT22;13825;53.496;10.020;2022-12-11T14:11:40;-0.50;99.90
26051;DHT22;13825;53.496;10.020;2022-12-11T14:14:20;-0.60;99.90
26051;DHT22;13825;53.496;10.020;2022-12-11T14:16:56;-0.70;99.90
26051;DHT22;13825;53.496;10.020;2022-12-11T14:19:29;-0.80;99.90
26051;DHT22;13825;53.496;10.020;2022-12-11T14:22:15;-1.00;99.90
26051;DHT22;13825;53.496;10.020;2022-12-11T14:24:54;-1.10;99.90
26051;DHT22;13825;53.496;10.020;2022-12-11T14:29:06;-1.10;99.90
26051;DHT22;13825;53.496;10.020;2022-12-11T14:30:56;-1.20;99.90
26051;DHT22;13825;53.496;10.020;2022-12-11T14:33:55;-1.20;99.90
26051;DHT22;13825;53.496;10.020;2022-12-11T14:36:57;-1.30;99.90
26051;DHT22;13825;53.496;10.020;2022-12-11T14:39:31;-1.30;99.90
26051;DHT22;13825;53.496;10.020;2022-12-11T14:45:37;-1.40;99.90
26051;DHT22;13825;53.496;10.020;2022-12-11T14:48:19;-1.40;99.90
26051;DHT22;13825;53.496;10.020;2022-12-11T14:50:55;-1.40;99.90
26051;DHT22;13825;53.496;10.020;2022-12-11T14:53:31;-1.40;99.90
26051;DHT22;13825;53.496;10.020;2022-12-11T14:56:22;-1.50;99.90
26051;DHT22;13825;53.496;10.020;2022-12-11T14:59:04;-1.50;99.90
26051;DHT22;13825;53.496;10.020;2022-12-11T15:01:43;-1.50;99.90
26051;DHT22;13825;53.496;10.020;2022-12-11T15:07:53;-1.50;99.90
26051;DHT22;13825;53.496;10.020;2022-12-11T15:11:07;-1.50;99.90
26051;DHT22;13825;53.496;10.020;2022-12-11T15:13:50;-1.50;99.90
26051;DHT22;13825;53.496;10.020;2022-12-11T15:16:48;-1.60;99.90
26051;DHT22;13825;53.496;10.020;2022-12-11T15:20:02;-1.60;99.90
26051;DHT22;13825;53.496;10.020;2022-12-11T15:22:57;-1.60;99.90
26051;DHT22;13825;53.496;10.020;2022-12-11T15:26:42;-1.60;99.90
26051;DHT22;13825;53.496;10.020;2022-12-11T15:29:41;-1.60;99.90
26051;DHT22;13825;53.496;10.020;2022-12-11T15:36:03;-1.60;99.90
26051;DHT22;13825;53.496;10.020;2022-12-11T15:39:12;-1.60;99.90
26051;DHT22;13825;53.496;10.020;2022-12-11T15:42:13;-1.60;99.90
26051;DHT22;13825;53.496;10.020;2022-12-11T15:45:28;-1.50;99.90
26051;DHT22;13825;53.496;10.020;2022-12-11T15:52:03;-1.60;99.90
26051;DHT22;13825;53.496;10.020;2022-12-11T16:04:51;-1.60;99.90
26051;DHT22;13825;53.496;10.020;2022-12-11T16:07:58;-1.60;99.90
26051;DHT22;13825;53.496;10.020;2022-12-11T16:10:47;-1.70;99.90
26051;DHT22;13825;53.496;10.020;2022-12-11T16:13:56;-1.70;99.90
26051;DHT22;13825;53.496;10.020;2022-12-11T16:16:56;-1.70;99.90
26051;DHT22;13825;53.496;10.020;2022-12-11T16:19:46;-1.70;99.90
26051;DHT22;13825;53.496;10.020;2022-12-11T16:22:30;-1.70;99.90
26051;DHT22;13825;53.496;10.020;2022-12-11T16:25:49;-1.70;99.90
26051;DHT22;13825;53.496;10.020;2022-12-11T16:29:06;-1.70;99.90
26051;DHT22;13825;53.496;10.020;2022-12-11T16:32:08;-1.70;99.90
26051;DHT22;13825;53.496;10.020;2022-12-11T16:34:56;-1.70;99.90
26051;DHT22;13825;53.496;10.020;2022-12-11T16:38:12;-1.70;99.90
26051;DHT22;13825;53.496;10.020;2022-12-11T16:41:14;-1.70;99.90
26051;DHT22;13825;53.496;10.020;2022-12-11T16:44:34;-1.70;99.90
26051;DHT22;13825;53.496;10.020;2022-12-11T16:47:57;-1.70;99.90
26051;DHT22;13825;53.496;10.020;2022-12-11T17:04:18;-1.70;99.90
26051;DHT22;13825;53.496;10.020;2022-12-11T17:09:09;-1.70;99.90
26051;DHT22;13825;53.496;10.020;2022-12-11T17:11:02;-1.70;99.90
26051;DHT22;13825;53.496;10.020;2022-12-11T17:26:45;-1.80;99.90
26051;DHT22;13825;53.496;10.020;2022-12-11T17:33:14;-2.00;99.90
26051;DHT22;13825;53.496;10.020;2022-12-11T17:46:29;-2.20;99.90
26051;DHT22;13825;53.496;10.020;2022-12-11T17:52:59;-2.20;99.90
26051;DHT22;13825;53.496;10.020;2022-12-11T18:31:04;-2.00;99.90
26051;DHT22;13825;53.496;10.020;2022-12-11T18:34:10;-2.00;99.90
26051;DHT22;13825;53.496;10.020;2022-12-11T18:39:00;-1.90;99.90
26051;DHT22;13825;53.496;10.020;2022-12-11T18:47:36;-1.80;99.90
26051;DHT22;13825;53.496;10.020;2022-12-11T18:54:00;-1.80;99.90
26051;DHT22;13825;53.496;10.020;2022-12-11T19:00:07;-1.80;99.90
26051;DHT22;13825;53.496;10.020;2022-12-11T19:16:43;-1.60;99.90
26051;DHT22;13825;53.496;10.020;2022-12-11T19:19:12;-1.60;99.90
26051;DHT22;13825;53.496;10.020;2022-12-11T19:25:03;-1.60;99.90
26051;DHT22;13825;53.496;10.020;2022-12-11T19:27:48;-1.60;99.90
26051;DHT22;13825;53.496;10.020;2022-12-11T19:31:02;-1.60;99.90
26051;DHT22;13825;53.496;10.020;2022-12-11T19:33:58;-1.60;99.90
26051;DHT22;13825;53.496;10.020;2022-12-11T19:36:43;-1.60;99.90
26051;DHT22;13825;53.496;10.020;2022-12-11T19:39:53;-1.60;99.90
26051;DHT22;13825;53.496;10.020;2022-12-11T19:42:50;-1.60;99.90
26051;DHT22;13825;53.496;10.020;2022-12-11T19:45:39;-1.60;99.90
26051;DHT22;13825;53.496;10.020;2022-12-11T19:48:36;-1.60;99.90
26051;DHT22;13825;53.496;10.020;2022-12-11T19:52:28;-1.60;99.90
26051;DHT22;13825;53.496;10.020;2022-12-11T19:55:06;-1.50;99.90
26051;DHT22;13825;53.496;10.020;2022-12-11T19:58:03;-1.50;99.90
26051;DHT22;13825;53.496;10.020;2022-12-11T20:00:31;-1.50;99.90
26051;DHT22;13825;53.496;10.020;2022-12-11T20:03:05;-1.50;99.90
26051;DHT22;13825;53.496;10.020;2022-12-11T20:06:28;-1.50;99.90
26051;DHT22;13825;53.496;10.020;2022-12-11T20:09:53;-1.50;99.90
26051;DHT22;13825;53.496;10.020;2022-12-11T20:12:39;-1.50;99.90
26051;DHT22;13825;53.496;10.020;2022-12-11T20:15:19;-1.50;99.90
26051;DHT22;13825;53.496;10.020;2022-12-11T20:18:08;-1.50;99.90
26051;DHT22;13825;53.496;10.020;2022-12-11T20:20:58;-1.50;99.90
26051;DHT22;13825;53.496;10.020;2022-12-11T20:26:53;-1.40;99.90
26051;DHT22;13825;53.496;10.020;2022-12-11T20:30:40;-1.40;99.90
26051;DHT22;13825;53.496;10.020;2022-12-11T20:32:49;-1.50;99.90
26051;DHT22;13825;53.496;10.020;2022-12-11T20:35:54;-1.40;99.90
26051;DHT22;13825;53.496;10.020;2022-12-11T20:38:51;-1.40;99.90
26051;DHT22;13825;53.496;10.020;2022-12-11T20:42:02;-1.40;99.90
26051;DHT22;13825;53.496;10.020;2022-12-11T20:45:26;-1.40;99.90
26051;DHT22;13825;53.496;10.020;2022-12-11T20:48:36;-1.40;99.90
26051;DHT22;13825;53.496;10.020;2022-12-11T20:51:11;-1.40;99.90
26051;DHT22;13825;53.496;10.020;2022-12-11T20:58:34;-1.30;99.90
26051;DHT22;13825;53.496;10.020;2022-12-11T20:59:59;-1.40;99.90
26051;DHT22;13825;53.496;10.020;2022-12-11T21:08:57;-1.40;99.90
26051;DHT22;13825;53.496;10.020;2022-12-11T21:11:56;-1.40;99.90
26051;DHT22;13825;53.496;10.020;2022-12-11T21:14:41;-1.40;99.90
26051;DHT22;13825;53.496;10.020;2022-12-11T21:20:54;-1.30;99.90
26051;DHT22;13825;53.496;10.020;2022-12-11T21:30:38;-1.40;99.90
26051;DHT22;13825;53.496;10.020;2022-12-11T21:33:17;-1.40;99.90
26051;DHT22;13825;53.496;10.020;2022-12-11T21:43:19;-1.40;99.90
26051;DHT22;13825;53.496;10.020;2022-12-11T21:46:13;-1.40;99.90
26051;DHT22;13825;53.496;10.020;2022-12-11T21:55:45;-1.40;99.90
26051;DHT22;13825;53.496;10.020;2022-12-11T21:58:50;-1.40;99.90
26051;DHT22;13825;53.496;10.020;2022-12-11T22:01:38;-1.30;99.90
26051;DHT22;13825;53.496;10.020;2022-12-11T22:04:28;-1.40;99.90
26051;DHT22;13825;53.496;10.020;2022-12-11T22:13:33;-1.30;99.90
26051;DHT22;13825;53.496;10.020;2022-12-11T22:16:27;-1.40;99.90
26051;DHT22;13825;53.496;10.020;2022-12-11T22:19:31;-1.30;99.90
26051;DHT22;13825;53.496;10.020;2022-12-11T22:22:12;-1.30;99.90
26051;DHT22;13825;53.496;10.020;2022-12-11T22:24:42;-1.30;99.90
26051;DHT22;13825;53.496;10.020;2022-12-11T22:30:36;-1.40;99.90
26051;DHT22;13825;53.496;10.020;2022-12-11T22:33:20;-1.30;99.90
26051;DHT22;13825;53.496;10.020;2022-12-11T22:36:29;-1.30;99.90
26051;DHT22;13825;53.496;10.020;2022-12-11T22:49:06;-1.30;99.90
26051;DHT22;13825;53.496;10.020;2022-12-11T22:52:01;-1.30;99.90
26051;DHT22;13825;53.496;10.020;2022-12-11T22:54:56;-1.30;99.90
26051;DHT22;13825;53.496;10.020;2022-12-11T23:01:19;-1.40;99.90
26051;DHT22;13825;53.496;10.020;2022-12-11T23:04:06;-1.40;99.90
26051;DHT22;13825;53.496;10.020;2022-12-11T23:06:47;-1.40;99.90
26051;DHT22;13825;53.496;10.020;2022-12-11T23:12:34;-1.40;99.90
26051;DHT22;13825;53.496;10.020;2022-12-11T23:15:12;-1.40;99.90
26051;DHT22;13825;53.496;10.020;2022-12-11T23:21:18;-1.50;99.90
26051;DHT22;13825;53.496;10.020;2022-12-11T23:27:13;-1.60;99.90
26051;DHT22;13825;53.496;10.020;2022-12-11T23:30:22;-1.70;99.90
26051;DHT22;13825;53.496;10.020;2022-12-11T23:33:01;-1.70;99.90
26051;DHT22;13825;53.496;10.020;2022-12-11T23:35:50;-1.70;99.90
26051;DHT22;13825;53.496;10.020;2022-12-11T23:41:56;-1.70;99.90
26051;DHT22;13825;53.496;10.020;2022-12-11T23:44:43;-1.70;99.90
26051;DHT22;13825;53.496;10.020;2022-12-11T23:47:56;-1.70;99.90
26051;DHT22;13825;53.496;10.020;2022-12-11T23:50:45;-1.70;99.90
